Time;durP1;ratioP1;P1;durP2;ratioP2;P2;SDS_P1;SDS_P2;PMS_P1;PMS_P2;Temp;Humidity;BMP_temperature;BMP_pressure;BME280_temperature;BME280_humidity;BME280_pressure;Samples;Min_cycle;Max_cycle;Signal;HPM_P1;HPM_P2
2022/05/03 00:01:00;;;;;;;29.10;22.13;;;;;;;12.96;57.28;101252.75;5001794;28;20054;-62
2022/05/03 00:03:32;;;;;;;33.13;23.15;;;;;;;13.03;56.79;101250.41;4993654;28;20050;-62
2022/05/03 00:06:43;;;;;;;28.52;22.27;;;;;;;13.10;56.55;101250.75;4978403;28;20073;-62
2022/05/03 00:09:13;;;;;;;31.13;21.67;;;;;;;13.03;56.97;101245.69;4988677;28;20066;-62
2022/05/03 00:11:45;;;;;;;31.52;22.33;;;;;;;12.68;57.70;101243.81;4989047;28;20065;-63
2022/05/03 00:14:22;;;;;;;30.80;21.88;;;;;;;13.04;56.99;101238.22;5006870;28;20054;-62
2022/05/03 00:16:50;;;;;;;29.13;22.10;;;;;;;13.33;55.98;101235.75;5004919;28;20520;-62
2022/05/03 00:19:17;;;;;;;31.83;22.48;;;;;;;13.14;56.37;101237.94;5013845;28;20045;-62
2022/05/03 00:21:45;;;;;;;34.70;23.30;;;;;;;13.08;56.72;101231.72;4969173;28;20054;-63
2022/05/03 00:24:12;;;;;;;31.52;22.20;;;;;;;13.13;56.31;101228.81;4978860;28;20176;-62
2022/05/03 00:26:40;;;;;;;29.92;21.90;;;;;;;13.18;56.68;101231.44;4977747;28;20138;-62
2022/05/03 00:29:07;;;;;;;31.67;21.10;;;;;;;13.03;56.92;101226.34;4981840;28;20057;-62
2022/05/03 00:31:35;;;;;;;32.60;21.42;;;;;;;12.90;57.15;101231.94;5021209;28;20053;-64
2022/05/03 00:34:03;;;;;;;30.70;21.83;;;;;;;13.03;57.02;101228.28;4963192;28;20061;-61
2022/05/03 00:36:31;;;;;;;30.83;22.92;;;;;;;12.86;57.24;101220.69;5011476;28;20057;-62
2022/05/03 00:38:58;;;;;;;34.13;22.92;;;;;;;13.15;56.53;101220.19;4989591;28;20066;-69
2022/05/03 00:41:29;;;;;;;29.08;21.33;;;;;;;12.60;57.57;101221.63;5011632;28;20057;-63
2022/05/03 00:44:55;;;;;;;31.80;22.17;;;;;;;12.89;57.47;101221.97;4980998;28;20057;-62
2022/05/03 00:47:00;;;;;;;35.15;22.98;;;;;;;12.69;57.52;101217.00;5016494;28;20081;-63
2022/05/03 00:50:00;;;;;;;36.17;23.63;;;;;;;12.41;58.24;101224.59;5012163;28;20061;-63
2022/05/03 00:52:36;;;;;;;32.42;22.83;;;;;;;12.54;58.29;101209.88;4992965;28;20632;-63
2022/05/03 00:55:25;;;;;;;34.42;23.45;;;;;;;12.59;58.11;101211.72;5017819;28;20050;-62
2022/05/03 00:58:02;;;;;;;30.92;23.27;;;;;;;12.19;59.03;101211.56;5012772;28;20046;-62
2022/05/03 01:00:31;;;;;;;28.17;21.25;;;;;;;12.46;58.43;101218.94;5012594;28;20041;-62
2022/05/03 01:03:07;;;;;;;34.88;23.67;;;;;;;12.29;58.77;101216.06;4987492;28;20068;-62
2022/05/03 01:05:50;;;;;;;33.80;22.83;;;;;;;12.48;58.43;101208.41;4990682;28;20049;-62
2022/05/03 01:08:54;;;;;;;35.03;22.27;;;;;;;12.27;58.76;101210.03;4987789;28;20050;-63
2022/05/03 01:11:33;;;;;;;29.83;22.38;;;;;;;12.64;58.03;101219.88;4989869;28;20057;-62
2022/05/03 01:14:25;;;;;;;31.85;23.27;;;;;;;12.46;58.02;101218.94;5009569;28;20069;-63
2022/05/03 01:17:14;;;;;;;32.03;22.85;;;;;;;12.40;58.26;101209.97;4999340;28;20045;-62
2022/05/03 01:20:05;;;;;;;30.03;21.83;;;;;;;12.84;57.61;101213.81;4992360;28;20049;-62
2022/05/03 01:22:56;;;;;;;31.40;22.17;;;;;;;13.01;56.67;101213.91;5011116;28;20057;-63
2022/05/03 01:25:44;;;;;;;30.60;22.00;;;;;;;12.33;58.24;101222.56;5011997;28;20054;-62
2022/05/03 01:28:20;;;;;;;34.03;21.40;;;;;;;12.28;58.90;101211.63;4999738;28;20053;-62
2022/05/03 01:30:49;;;;;;;31.02;21.85;;;;;;;12.53;58.25;101208.28;4987002;28;20404;-63
2022/05/03 01:33:17;;;;;;;32.90;23.55;;;;;;;12.51;58.09;101216.06;4998890;28;20054;-62
2022/05/03 01:35:46;;;;;;;32.58;23.00;;;;;;;11.95;59.66;101205.50;4996100;28;20061;-62
2022/05/03 01:38:52;;;;;;;30.88;22.80;;;;;;;12.07;59.38;101214.06;4983426;28;20499;-62
2022/05/03 01:41:37;;;;;;;32.97;21.63;;;;;;;12.43;58.59;101205.72;5023170;28;20049;-63
2022/05/03 01:44:23;;;;;;;35.00;23.10;;;;;;;12.13;59.21;101204.53;5005283;28;20061;-69
2022/05/03 01:46:57;;;;;;;31.50;21.67;;;;;;;11.88;59.74;101207.06;5016646;28;20050;-69
2022/05/03 01:52:46;;;;;;;35.53;22.25;;;;;;;12.18;59.05;101203.59;5004440;28;20058;-68
2022/05/03 01:55:29;;;;;;;36.80;23.50;;;;;;;12.11;59.00;101195.75;4992263;28;20062;-68
2022/05/03 01:58:23;;;;;;;28.95;21.70;;;;;;;12.00;59.39;101193.53;5009442;28;20383;-69
2022/05/03 02:01:02;;;;;;;30.95;22.23;;;;;;;12.18;59.19;101189.78;4982903;28;20069;-68
2022/05/03 02:03:49;;;;;;;31.48;21.88;;;;;;;12.27;58.35;101188.72;4986198;28;20500;-69
2022/05/03 02:06:22;;;;;;;35.03;22.50;;;;;;;12.05;59.20;101190.63;4987575;28;20057;-69
2022/05/03 02:09:05;;;;;;;28.63;21.45;;;;;;;11.90;59.94;101194.59;4986352;28;20046;-70
2022/05/03 02:11:40;;;;;;;30.98;21.58;;;;;;;11.82;59.59;101200.81;4990414;28;20053;-69
2022/05/03 02:17:14;;;;;;;35.83;21.48;;;;;;;11.99;59.04;101191.91;4995755;28;20050;-70
2022/05/03 02:20:03;;;;;;;29.38;20.63;;;;;;;11.87;59.47;101202.69;5016310;28;20469;-69
2022/05/03 02:22:34;;;;;;;31.90;20.85;;;;;;;12.02;59.03;101205.06;5003025;28;20054;-69
2022/05/03 02:25:26;;;;;;;29.90;21.38;;;;;;;11.83;59.66;101201.66;4995019;28;20054;-69
2022/05/03 02:28:00;;;;;;;31.95;21.13;;;;;;;11.89;59.66;101200.44;5021777;28;20049;-68
2022/05/03 02:30:28;;;;;;;28.98;20.92;;;;;;;12.03;nan;101199.25;4999837;28;20058;-69
2022/05/03 02:32:56;;;;;;;32.10;21.92;;;;;;;12.01;59.19;101207.00;4987397;28;20494;-69
2022/05/03 02:35:24;;;;;;;33.88;21.67;;;;;;;11.63;59.96;101211.16;5014915;28;20053;-69
2022/05/03 02:37:57;;;;;;;36.65;22.13;;;;;;;11.55;60.63;101213.81;4998675;28;20046;-68
2022/05/03 02:40:27;;;;;;;29.77;21.20;;;;;;;11.57;60.59;101208.81;5005776;28;20054;-69
2022/05/03 02:42:56;;;;;;;30.25;21.58;;;;;;;11.61;60.12;101207.09;4998779;28;20049;-68
2022/05/03 02:45:24;;;;;;;32.90;22.05;;;;;;;11.49;60.25;101202.06;5015832;28;20045;-68
2022/05/03 02:48:14;;;;;;;30.95;21.02;;;;;;;11.46;60.54;101199.94;5002607;28;20038;-68
2022/05/03 02:50:45;;;;;;;31.60;21.77;;;;;;;11.43;60.25;101203.31;4970635;28;20060;-68
2022/05/03 02:53:45;;;;;;;33.72;22.65;;;;;;;11.56;60.35;101208.00;5002394;28;20050;-70
2022/05/03 02:56:25;;;;;;;29.83;20.13;;;;;;;11.75;59.79;101207.91;4996144;28;20481;-70
2022/05/03 03:02:29;;;;;;;31.33;20.27;;;;;;;11.79;61.46;101198.69;4988570;28;20058;-69
2022/05/03 03:05:07;;;;;;;30.75;20.83;;;;;;;11.61;60.67;101202.34;5019329;28;20056;-69
2022/05/03 03:08:07;;;;;;;34.90;21.42;;;;;;;11.19;63.37;101202.69;5015595;28;20054;-69
2022/05/03 03:10:44;;;;;;;32.42;20.42;;;;;;;11.24;63.65;101200.63;4987310;28;20065;-69
2022/05/03 03:13:26;;;;;;;31.02;20.45;;;;;;;11.10;64.32;101208.13;4998418;28;20050;-68
2022/05/03 03:15:54;;;;;;;30.73;20.48;;;;;;;11.38;63.30;101204.22;5005225;28;20053;-68
2022/05/03 03:18:24;;;;;;;29.73;20.88;;;;;;;11.03;64.38;101204.94;4998147;28;20042;-69
2022/05/03 03:20:56;;;;;;;29.48;19.88;;;;;;;10.92;64.97;101202.66;5003204;28;20050;-69
2022/05/03 03:23:28;;;;;;;29.95;20.38;;;;;;;11.01;65.30;101204.41;4997860;28;20184;-68
2022/05/03 03:25:56;;;;;;;33.90;21.00;;;;;;;11.20;64.69;101204.31;4997419;28;20050;-69
2022/05/03 03:28:23;;;;;;;32.00;20.83;;;;;;;10.84;65.19;101204.19;4986656;28;20056;-69
2022/05/03 03:30:51;;;;;;;29.08;20.13;;;;;;;11.11;64.68;101208.91;5019660;28;20049;-69
2022/05/03 03:33:19;;;;;;;34.60;21.63;;;;;;;11.14;64.30;101202.81;5014973;28;20054;-68
2022/05/03 03:35:48;;;;;;;32.50;20.40;;;;;;;11.08;64.88;101202.09;5014753;28;20058;-69
2022/05/03 03:38:15;;;;;;;30.48;20.02;;;;;;;11.06;64.46;101198.81;5015026;28;20057;-69
2022/05/03 03:40:46;;;;;;;31.05;20.38;;;;;;;10.97;65.05;101199.81;4981343;28;20058;-70
2022/05/03 03:43:15;;;;;;;39.88;20.20;;;;;;;11.20;64.63;101194.13;4987242;28;20058;-68
2022/05/03 03:45:42;;;;;;;31.05;20.67;;;;;;;11.08;64.81;101185.53;5008322;28;20050;-68
2022/05/03 03:48:09;;;;;;;30.35;20.20;;;;;;;11.11;64.85;101195.13;5005976;28;20046;-68
2022/05/03 03:50:37;;;;;;;29.15;20.13;;;;;;;11.12;64.43;101194.81;5014802;28;20057;-70
2022/05/03 03:53:06;;;;;;;32.47;21.58;;;;;;;11.13;64.02;101192.88;4996742;28;20046;-69
2022/05/03 03:55:33;;;;;;;31.52;21.02;;;;;;;11.05;64.51;101190.84;4999924;28;20057;-69
2022/05/03 03:58:01;;;;;;;31.27;21.00;;;;;;;11.00;64.70;101194.50;4981378;28;20049;-68
2022/05/03 04:00:29;;;;;;;33.15;21.33;;;;;;;11.32;64.12;101188.09;4997003;28;20046;-70
2022/05/03 04:02:57;;;;;;;30.92;21.48;;;;;;;11.37;62.98;101195.44;5012083;28;20061;-70
2022/05/03 04:05:24;;;;;;;31.17;22.05;;;;;;;11.17;63.88;101191.16;5000247;28;20809;-68
2022/05/03 04:07:52;;;;;;;32.05;22.48;;;;;;;11.22;64.34;101188.28;4986993;28;20052;-69
2022/05/03 04:10:19;;;;;;;31.88;22.08;;;;;;;11.35;63.59;101193.81;5021440;28;20049;-69
2022/05/03 04:12:47;;;;;;;33.42;21.88;;;;;;;11.17;63.60;101199.44;5020003;28;20077;-68
2022/05/03 04:15:14;;;;;;;35.22;21.88;;;;;;;11.17;64.12;101197.50;5005297;28;20080;-70
2022/05/03 04:17:43;;;;;;;30.77;20.70;;;;;;;11.33;64.74;101190.53;4998623;28;20057;-68
2022/05/03 04:20:18;;;;;;;33.40;22.00;;;;;;;11.29;63.99;101199.72;5000249;28;20052;-67
2022/05/03 04:22:45;;;;;;;31.50;21.05;;;;;;;11.34;63.96;101202.38;5002201;28;20053;-70
2022/05/03 04:25:13;;;;;;;33.58;21.63;;;;;;;11.24;63.41;101202.59;5013431;28;20045;-68
2022/05/03 04:27:40;;;;;;;29.63;22.02;;;;;;;11.44;63.91;101202.19;5000167;28;20046;-69
2022/05/03 04:30:08;;;;;;;31.60;21.98;;;;;;;11.30;63.42;101204.94;5017746;28;20464;-68
2022/05/03 04:32:35;;;;;;;33.20;20.67;;;;;;;11.63;63.25;101202.88;4999728;28;20065;-69
2022/05/03 04:35:03;;;;;;;34.03;21.88;;;;;;;11.77;62.87;101202.91;4983549;28;20054;-70
2022/05/03 04:37:48;;;;;;;37.38;23.85;;;;;;;11.40;62.84;101200.34;5001256;28;20061;-70
2022/05/03 04:40:16;;;;;;;36.70;22.42;;;;;;;11.59;62.56;101201.88;5019207;28;20500;-62
2022/05/03 04:42:45;;;;;;;33.43;22.13;;;;;;;11.15;62.80;101198.91;5019462;28;20058;-62
2022/05/03 04:45:12;;;;;;;34.55;23.27;;;;;;;10.91;64.67;101199.06;5028531;28;20054;-63
2022/05/03 04:47:39;;;;;;;33.03;20.70;;;;;;;11.34;64.56;101202.38;5018939;28;20049;-63
2022/05/03 04:50:24;;;;;;;35.15;22.67;;;;;;;11.57;63.48;101195.84;4991450;28;20076;-68
2022/05/03 04:52:51;;;;;;;33.92;21.58;;;;;;;11.60;63.46;101194.41;5018710;28;20061;-70
2022/05/03 04:55:18;;;;;;;31.77;22.10;;;;;;;11.44;63.17;101202.19;4987759;28;20056;-63
2022/05/03 04:57:46;;;;;;;34.45;23.38;;;;;;;11.29;62.66;101205.25;5015414;28;20054;-62
2022/05/03 05:00:14;;;;;;;34.60;22.67;;;;;;;11.35;62.29;101204.84;5011745;28;20065;-63
2022/05/03 05:02:41;;;;;;;33.08;22.48;;;;;;;11.61;61.49;101210.63;4998475;28;20065;-63
2022/05/03 05:05:08;;;;;;;34.88;22.17;;;;;;;11.56;61.33;101215.47;5013773;28;20547;-63
2022/05/03 05:07:36;;;;;;;34.72;22.17;;;;;;;11.83;60.60;101215.44;5015750;28;20054;-63
2022/05/03 05:12:49;;;;;;;36.60;23.45;;;;;;;12.02;59.42;101216.94;4991758;28;20058;-62
2022/05/03 05:15:19;;;;;;;32.40;21.60;;;;;;;11.91;59.45;101217.47;4996523;28;20042;-62
2022/05/03 05:17:47;;;;;;;29.80;21.35;;;;;;;11.65;60.28;101214.44;5002755;28;20054;-63
2022/05/03 05:20:14;;;;;;;31.60;21.30;;;;;;;11.87;60.54;101227.50;5006996;28;20054;-63
2022/05/03 05:22:42;;;;;;;32.42;22.25;;;;;;;11.71;60.00;101224.28;5002921;28;20053;-63
2022/05/03 05:25:29;;;;;;;33.92;21.73;;;;;;;11.55;60.77;101225.69;5006671;28;20497;-69
2022/05/03 05:27:59;;;;;;;34.05;22.83;;;;;;;11.69;60.29;101223.75;5014189;28;20054;-69
2022/05/03 05:30:26;;;;;;;34.08;22.00;;;;;;;11.76;60.70;101221.41;5008759;28;20046;-69
2022/05/03 05:32:54;;;;;;;34.63;23.60;;;;;;;11.66;60.30;101229.06;5025866;28;20681;-69
2022/05/03 05:35:22;;;;;;;36.40;23.02;;;;;;;11.55;61.15;101236.72;4990890;28;20106;-63
2022/05/03 05:37:49;;;;;;;39.08;24.25;;;;;;;11.46;60.92;101233.03;5012931;28;20433;-63
2022/05/03 05:40:17;;;;;;;42.63;23.85;;;;;;;11.80;60.61;101236.19;5012624;28;20381;-62
2022/05/03 05:42:49;;;;;;;37.25;22.80;;;;;;;11.99;60.21;101230.56;5005993;28;20050;-64
2022/05/03 05:45:20;;;;;;;33.65;22.52;;;;;;;11.90;60.19;101240.69;5016509;28;20061;-64
2022/05/03 05:47:53;;;;;;;34.75;22.77;;;;;;;11.19;62.20;101241.31;5003830;28;20400;-64
2022/05/03 05:50:20;;;;;;;34.53;22.95;;;;;;;11.26;62.05;101241.72;4987261;28;20054;-62
2022/05/03 05:55:39;;;;;;;41.85;23.13;;;;;;;11.34;61.92;101229.97;4982080;28;20289;-62
2022/05/03 05:58:06;;;;;;;36.25;23.48;;;;;;;11.25;62.14;101242.81;5016449;28;20050;-69
2022/05/03 06:00:34;;;;;;;35.95;23.45;;;;;;;11.18;62.66;101236.91;5018383;28;20049;-71
2022/05/03 06:03:01;;;;;;;29.80;21.77;;;;;;;11.38;61.70;101237.31;5012014;28;20113;-69
2022/05/03 06:05:30;;;;;;;35.00;22.48;;;;;;;11.20;62.04;101245.69;5014464;28;20050;-70
2022/05/03 06:07:58;;;;;;;37.90;22.67;;;;;;;11.14;62.77;101249.69;5008248;28;20053;-69
2022/05/03 06:10:26;;;;;;;39.88;22.80;;;;;;;11.17;62.82;101260.91;4985016;28;20050;-69
2022/05/03 06:12:53;;;;;;;37.38;22.13;;;;;;;11.57;62.41;101252.97;5005966;28;20053;-69
2022/05/03 06:15:20;;;;;;;32.45;21.98;;;;;;;11.88;61.06;101253.97;4994116;28;20055;-68
2022/05/03 06:17:48;;;;;;;35.75;21.08;;;;;;;12.10;61.07;101262.34;5009143;28;20061;-69
2022/05/03 06:20:15;;;;;;;31.40;21.10;;;;;;;11.94;60.48;101250.00;4985903;28;20085;-69
2022/05/03 06:22:43;;;;;;;39.28;21.98;;;;;;;11.96;60.29;101247.75;5017523;28;20050;-70
2022/05/03 06:25:10;;;;;;;40.75;21.65;;;;;;;12.12;59.97;101260.06;5025609;28;20417;-69
2022/05/03 06:27:40;;;;;;;40.38;21.13;;;;;;;11.51;61.33;101260.50;5014599;28;20045;-68
2022/05/03 06:30:08;;;;;;;41.05;23.90;;;;;;;11.50;61.58;101260.81;5005329;28;20052;-69
2022/05/03 06:32:37;;;;;;;37.75;22.63;;;;;;;11.78;60.71;101262.47;5014527;28;20058;-68
2022/05/03 06:35:04;;;;;;;38.75;23.55;;;;;;;11.42;61.68;101269.81;5018501;28;20612;-69
2022/05/03 06:37:36;;;;;;;38.25;22.23;;;;;;;11.78;60.87;101266.06;5013066;28;20054;-63
2022/05/03 06:40:08;;;;;;;38.40;23.17;;;;;;;12.01;60.27;101265.00;5008204;28;20049;-63
2022/05/03 06:42:37;;;;;;;34.13;21.65;;;;;;;12.02;59.75;101268.59;5008343;28;20058;-62
2022/05/03 06:45:06;;;;;;;40.47;21.48;;;;;;;12.10;59.73;101268.66;5012296;28;20067;-62
2022/05/03 06:47:33;;;;;;;33.40;22.27;;;;;;;12.24;59.15;101263.94;5021623;28;20128;-63
2022/05/03 06:50:01;;;;;;;37.00;22.17;;;;;;;12.48;58.72;101258.13;4977088;28;20046;-61
2022/05/03 06:52:31;;;;;;;35.75;23.27;;;;;;;12.17;58.86;101280.09;5012944;28;20062;-63
2022/05/03 06:54:58;;;;;;;;;;;;;;;11.84;60.39;101269.50;5010650;28;20050;-62
2022/05/03 06:57:25;;;;;;;36.15;23.08;;;;;;;11.82;60.32;101269.81;5022141;28;19929;-63
2022/05/03 06:59:53;;;;;;;37.03;22.13;;;;;;;12.00;59.69;101260.63;4999014;28;20149;-63
2022/05/03 07:02:20;;;;;;;30.70;21.45;;;;;;;12.07;60.29;101268.47;4996034;28;20049;-62
2022/05/03 07:04:49;;;;;;;37.67;22.52;;;;;;;11.97;59.76;101268.69;5014336;28;20056;-62
2022/05/03 07:07:17;;;;;;;35.83;23.25;;;;;;;11.77;60.38;101271.91;5006856;28;20061;-62
2022/05/03 07:09:44;;;;;;;35.22;22.50;;;;;;;11.71;60.50;101273.13;5008806;28;20053;-62
2022/05/03 07:12:12;;;;;;;35.72;21.83;;;;;;;12.28;59.29;101272.41;4979321;28;20060;-62
2022/05/03 07:14:39;;;;;;;38.83;21.88;;;;;;;12.10;58.85;101276.16;4999156;28;20073;-63
2022/05/03 07:17:06;;;;;;;36.13;21.52;;;;;;;12.32;59.10;101271.50;5011601;28;20552;-65
2022/05/03 07:25:07;;;;;;;32.35;20.95;;;;;;;12.27;58.57;101277.09;4998906;28;20481;-63
2022/05/03 07:27:35;;;;;;;29.27;20.83;;;;;;;12.09;59.30;101285.53;4970033;28;20057;-63
2022/05/03 07:30:03;;;;;;;32.28;21.85;;;;;;;12.42;58.30;101275.94;5017230;28;20053;-64
2022/05/03 07:32:30;;;;;;;31.90;20.23;;;;;;;12.71;58.12;101281.06;5012371;28;20072;-63
2022/05/03 07:34:57;;;;;;;38.67;22.17;;;;;;;12.53;57.99;101271.00;5012990;28;20160;-64
2022/05/03 07:37:25;;;;;;;31.67;21.60;;;;;;;12.67;57.52;101282.81;5013625;28;20476;-63
2022/05/03 07:39:52;;;;;;;36.05;20.65;;;;;;;12.81;57.32;101286.34;5020133;28;20041;-67
2022/05/03 07:42:19;;;;;;;30.27;19.40;;;;;;;13.13;56.56;101280.53;4985107;28;20067;-68
2022/05/03 07:44:47;;;;;;;33.03;19.55;;;;;;;13.07;56.64;101279.88;5009525;28;20054;-68
2022/05/03 07:47:14;;;;;;;35.53;21.33;;;;;;;13.29;55.79;101293.69;5011707;28;20054;-68
2022/05/03 07:49:43;;;;;;;34.30;21.15;;;;;;;13.01;55.87;101286.63;5011015;28;20064;-68
2022/05/03 07:52:10;;;;;;;34.35;21.80;;;;;;;12.88;56.50;101289.47;5019542;28;20045;-64
2022/05/03 07:54:42;;;;;;;34.33;21.90;;;;;;;13.11;56.25;101289.16;4995017;28;20652;-63
2022/05/03 07:57:12;;;;;;;33.63;22.38;;;;;;;13.08;55.79;101292.56;5013312;28;20481;-62
2022/05/03 07:59:40;;;;;;;40.35;21.45;;;;;;;12.99;56.43;101288.91;5017905;28;20076;-64
2022/05/03 08:02:07;;;;;;;35.85;21.15;;;;;;;12.96;55.80;101294.25;5000583;28;20049;-64
2022/05/03 08:04:35;;;;;;;35.65;20.60;;;;;;;13.26;55.80;101294.31;5012488;28;20062;-63
2022/05/03 08:07:02;;;;;;;32.88;21.33;;;;;;;13.31;54.92;101291.41;5012722;28;20052;-63
2022/05/03 08:09:29;;;;;;;35.25;20.00;;;;;;;13.61;54.64;101286.16;4994256;28;20054;-68
2022/05/03 08:11:57;;;;;;;34.17;21.52;;;;;;;13.39;55.00;101298.94;5019410;28;20239;-68
2022/05/03 08:14:27;;;;;;;31.05;19.08;;;;;;;13.51;54.91;101301.91;5011324;28;20061;-67
2022/05/03 08:17:01;;;;;;;32.95;20.23;;;;;;;13.18;55.85;101297.03;5011700;28;20055;-67
2022/05/03 08:19:28;;;;;;;29.98;19.98;;;;;;;13.04;55.67;101299.84;5011655;28;20045;-68
2022/05/03 08:21:56;;;;;;;37.75;20.70;;;;;;;12.77;57.08;101301.91;5012138;28;20054;-67
2022/05/03 08:24:24;;;;;;;33.63;20.92;;;;;;;13.14;56.42;101296.03;5010334;28;20057;-68
2022/05/03 08:26:52;;;;;;;31.65;20.25;;;;;;;13.67;55.06;101296.75;4990639;28;20054;-67
2022/05/03 08:29:20;;;;;;;33.72;20.15;;;;;;;13.61;54.63;101305.53;4995493;28;20096;-66
2022/05/03 08:31:48;;;;;;;32.55;21.88;;;;;;;13.12;55.86;101293.59;5000300;28;20073;-67
2022/05/03 08:34:16;;;;;;;31.08;20.00;;;;;;;13.53;55.92;101299.66;5010239;28;20061;-67
2022/05/03 08:42:01;;;;;;;32.60;21.13;;;;;;;13.73;54.95;101301.03;4992000;28;20046;-67
2022/05/03 08:42:17;;;;;;;36.55;21.75;;;;;;;13.69;55.05;101291.72;4994966;28;20397;-61
2022/05/03 08:44:44;;;;;;;32.83;20.50;;;;;;;13.44;55.21;101298.00;4992447;28;20680;-61
2022/05/03 08:47:14;;;;;;;34.10;22.15;;;;;;;13.46;55.26;101299.28;5009495;28;20053;-61
2022/05/03 08:50:01;;;;;;;32.28;21.23;;;;;;;13.64;55.70;101302.13;5011584;28;20058;-61
2022/05/03 08:52:33;;;;;;;32.33;19.33;;;;;;;14.08;55.06;101294.47;4994444;28;20058;-63
2022/05/03 08:55:01;;;;;;;35.22;20.75;;;;;;;14.49;53.55;101286.56;5017207;28;20054;-62
2022/05/03 08:57:29;;;;;;;31.25;19.65;;;;;;;14.40;52.79;101293.25;5019803;28;20066;-63
2022/05/03 08:59:57;;;;;;;36.78;20.52;;;;;;;14.29;52.73;101286.38;4987965;28;20057;-61
2022/05/03 09:02:24;;;;;;;27.52;20.88;;;;;;;14.33;52.79;101296.47;5012811;28;20054;-60
2022/05/03 09:04:51;;;;;;;31.83;20.65;;;;;;;14.39;52.57;101295.19;5014002;28;20054;-60
2022/05/03 09:07:21;;;;;;;40.25;18.63;;;;;;;14.67;51.97;101284.59;5014735;28;20516;-62
2022/05/03 09:09:49;;;;;;;28.23;18.50;;;;;;;14.98;50.46;101281.63;4995968;28;20049;-60
2022/05/03 09:12:29;;;;;;;34.83;18.35;;;;;;;15.02;50.14;101285.38;5000087;28;20054;-61
2022/05/03 09:14:58;;;;;;;35.13;17.67;;;;;;;14.53;51.63;101293.09;4991565;28;20046;-61
2022/05/03 09:17:34;;;;;;;26.63;16.50;;;;;;;14.88;49.80;101279.19;5016387;28;20059;-61
2022/05/03 09:23:46;;;;;;;29.17;15.82;;;;;;;15.17;48.73;101293.16;4972449;28;20054;-60
2022/05/03 09:25:50;;;;;;;30.40;16.20;;;;;;;14.94;48.30;101300.06;5014363;28;20054;-61
2022/05/03 09:28:20;;;;;;;22.92;16.20;;;;;;;15.02;48.44;101285.38;4999018;28;20042;-61
2022/05/03 09:30:50;;;;;;;28.63;16.80;;;;;;;14.93;48.25;101307.56;4995820;28;20132;-62
2022/05/03 09:33:23;;;;;;;28.02;16.17;;;;;;;14.99;48.57;101294.34;5016352;28;20057;-61
2022/05/03 09:35:51;;;;;;;29.95;17.08;;;;;;;15.21;48.46;101286.63;5027254;28;20049;-61
2022/05/03 09:38:18;;;;;;;26.50;16.52;;;;;;;15.20;48.35;101282.22;5008089;28;20062;-61
2022/05/03 09:40:46;;;;;;;28.08;17.63;;;;;;;15.22;48.43;101279.13;5016650;28;20049;-61
2022/05/03 09:43:16;;;;;;;26.63;16.15;;;;;;;15.31;48.86;101277.94;5012667;28;20073;-62
2022/05/03 09:45:43;;;;;;;27.13;17.13;;;;;;;15.25;48.50;101279.28;5019146;28;20052;-62
2022/05/03 09:48:11;;;;;;;27.00;16.50;;;;;;;15.35;48.35;101280.88;4998841;28;20304;-62
2022/05/03 09:50:43;;;;;;;22.55;16.23;;;;;;;15.27;48.99;101284.50;5013187;28;20606;-65
2022/05/03 09:53:17;;;;;;;28.40;16.60;;;;;;;15.42;48.82;101267.31;5014041;28;20041;-62
2022/05/03 09:55:48;;;;;;;25.92;17.35;;;;;;;15.50;48.12;101278.41;5015634;28;20057;-61
2022/05/03 09:58:18;;;;;;;24.73;16.05;;;;;;;15.49;47.95;101267.63;5014603;28;20064;-63
2022/05/03 10:00:49;;;;;;;28.80;15.68;;;;;;;15.65;47.59;101266.75;5009580;28;20053;-61
2022/05/03 10:03:20;;;;;;;20.27;14.35;;;;;;;16.12;46.63;101272.19;5009735;28;20050;-61
2022/05/03 10:05:48;;;;;;;26.73;15.18;;;;;;;16.22;45.42;101266.22;5011916;28;20049;-68
2022/05/03 10:08:18;;;;;;;31.55;14.68;;;;;;;16.08;45.55;101262.91;4982906;28;20054;-69
2022/05/03 10:10:56;;;;;;;30.60;15.43;;;;;;;15.94;45.58;101270.66;5015448;28;20485;-68
2022/05/03 10:13:25;;;;;;;21.35;14.85;;;;;;;15.99;45.87;101262.94;4994899;28;20049;-68
2022/05/03 10:21:32;;;;;;;25.98;15.15;;;;;;;15.83;46.17;101261.09;4987730;28;20053;-67
2022/05/03 10:24:06;;;;;;;20.88;13.95;;;;;;;15.98;46.02;101264.13;5015329;28;20052;-68
2022/05/03 10:26:51;;;;;;;24.95;13.85;;;;;;;16.07;45.92;101255.72;4998053;28;20397;-60
2022/05/03 10:29:20;;;;;;;23.45;14.32;;;;;;;16.39;44.71;101252.19;5012953;28;20512;-68
2022/05/03 10:32:15;;;;;;;22.27;14.50;;;;;;;16.24;44.62;101250.03;4973511;28;20497;-67
2022/05/03 10:34:45;;;;;;;20.58;14.38;;;;;;;16.19;44.76;101248.28;5008249;28;20058;-67
2022/05/03 10:37:14;;;;;;;19.80;12.83;;;;;;;16.58;44.41;101258.16;5004271;28;20046;-66
2022/05/03 10:39:59;;;;;;;19.73;13.70;;;;;;;16.61;44.27;101244.38;5013407;28;20301;-67
2022/05/03 10:42:27;;;;;;;18.73;12.45;;;;;;;16.97;43.72;101240.91;5012445;28;20516;-67
2022/05/03 10:45:12;;;;;;;24.73;13.73;;;;;;;16.83;43.64;101238.44;5015534;28;20940;-66
2022/05/03 10:47:49;;;;;;;23.55;14.15;;;;;;;16.93;43.94;101245.50;5012200;28;20046;-66
2022/05/03 10:50:16;;;;;;;21.60;14.55;;;;;;;17.21;43.95;101242.94;5006035;28;20062;-66
2022/05/03 10:52:53;;;;;;;15.88;12.75;;;;;;;16.93;43.54;101241.94;5008762;28;20054;-67
2022/05/03 10:55:22;;;;;;;21.45;12.68;;;;;;;17.01;43.28;101239.06;5015121;28;20050;-68
2022/05/03 10:58:20;;;;;;;20.25;12.93;;;;;;;17.12;43.24;101242.22;5012525;28;20050;-67
2022/05/03 11:01:09;;;;;;;20.73;11.75;;;;;;;17.38;42.64;101237.16;5005494;28;20043;-67
2022/05/03 11:03:40;;;;;;;17.77;12.40;;;;;;;17.41;43.21;101247.59;4997206;28;20050;-68
2022/05/03 11:06:18;;;;;;;21.00;12.60;;;;;;;17.32;42.39;101244.09;5015163;28;20053;-66
2022/05/03 11:08:57;;;;;;;18.42;11.65;;;;;;;17.28;42.16;101229.25;5015609;28;20634;-68
2022/05/03 11:11:43;;;;;;;24.40;11.95;;;;;;;17.16;41.74;101241.19;5012238;28;20050;-68
2022/05/03 11:14:24;;;;;;;20.13;12.95;;;;;;;17.12;41.48;101228.31;5010805;28;20042;-69
2022/05/03 11:17:11;;;;;;;20.58;11.55;;;;;;;17.36;42.05;101215.25;5009780;28;20049;-67
2022/05/03 11:19:49;;;;;;;21.88;12.43;;;;;;;17.29;42.74;101230.88;5012220;28;20432;-67
2022/05/03 11:22:21;;;;;;;20.13;11.48;;;;;;;17.40;43.52;101221.72;4986981;28;20532;-68
2022/05/03 11:24:51;;;;;;;20.98;12.73;;;;;;;17.29;43.36;101226.13;5007727;28;20053;-68
2022/05/03 11:27:19;;;;;;;;;;;;;;;17.21;43.45;101238.16;4994064;28;20516;-67
2022/05/03 11:29:48;;;;;;;19.65;11.90;;;;;;;16.94;44.11;101226.84;5009059;28;19993;-67
2022/05/03 11:32:27;;;;;;;21.02;11.77;;;;;;;17.08;43.55;101224.56;4982141;28;20528;-67
2022/05/03 11:35:09;;;;;;;20.73;11.32;;;;;;;17.13;43.24;101207.66;5014202;28;20053;-66
2022/05/03 11:37:47;;;;;;;15.60;11.48;;;;;;;17.17;42.76;101206.63;5001059;28;20523;-67
2022/05/03 11:40:15;;;;;;;22.13;12.88;;;;;;;17.12;43.01;101211.59;5016139;28;20050;-67
2022/05/03 11:42:44;;;;;;;20.38;12.77;;;;;;;17.13;42.72;101211.25;5014367;28;20057;-67
2022/05/03 11:45:13;;;;;;;18.45;11.25;;;;;;;17.14;43.05;101212.06;4991930;28;20076;-67
2022/05/03 11:47:45;;;;;;;20.58;10.05;;;;;;;17.41;42.35;101208.63;4987740;28;20073;-69
2022/05/03 11:55:58;;;;;;;14.27;8.80;;;;;;;17.29;42.74;101208.59;5013469;28;20050;-67
2022/05/03 11:56:01;;;;;;;20.88;8.35;;;;;;;17.67;41.78;101200.75;5007751;28;20056;-67
2022/05/03 11:58:31;;;;;;;14.93;8.35;;;;;;;17.56;41.09;101203.19;5006992;28;20153;-66
2022/05/03 12:00:58;;;;;;;17.05;8.35;;;;;;;17.35;41.38;101194.09;5006251;28;20042;-66
2022/05/03 12:03:26;;;;;;;15.82;8.07;;;;;;;17.36;41.53;101192.97;4987918;28;20058;-68
2022/05/03 12:06:03;;;;;;;10.98;7.00;;;;;;;17.84;40.63;101192.97;4996087;28;20057;-67
2022/05/03 12:08:33;;;;;;;16.00;7.97;;;;;;;17.91;40.09;101182.03;4990321;28;20054;-67